sensor_id;sensor_type;location;lat;lon;timestamp;temperature;humidity
10175;DHT22;18221;38.704;0.152;2023-06-19T00:00:07;21.50;99.90
10175;DHT22;18221;38.704;0.152;2023-06-19T00:02:42;21.40;99.90
10175;DHT22;18221;38.704;0.152;2023-06-19T00:05:12;21.40;99.90
10175;DHT22;18221;38.704;0.152;2023-06-19T00:07:41;21.40;99.90
10175;DHT22;18221;38.704;0.152;2023-06-19T00:10:09;21.40;99.90
10175;DHT22;18221;38.704;0.152;2023-06-19T00:12:37;21.40;99.90
10175;DHT22;18221;38.704;0.152;2023-06-19T00:15:05;21.40;99.90
10175;DHT22;18221;38.704;0.152;2023-06-19T00:17:35;21.30;99.90
10175;DHT22;18221;38.704;0.152;2023-06-19T00:20:04;21.30;99.90
10175;DHT22;18221;38.704;0.152;2023-06-19T00:22:34;21.30;99.90
10175;DHT22;18221;38.704;0.152;2023-06-19T00:25:02;21.30;99.90
10175;DHT22;18221;38.704;0.152;2023-06-19T00:27:31;21.30;99.90
10175;DHT22;18221;38.704;0.152;2023-06-19T00:29:59;21.30;99.90
10175;DHT22;18221;38.704;0.152;2023-06-19T00:32:29;21.30;99.90
10175;DHT22;18221;38.704;0.152;2023-06-19T00:34:57;21.30;99.90
10175;DHT22;18221;38.704;0.152;2023-06-19T00:37:26;21.30;99.90
10175;DHT22;18221;38.704;0.152;2023-06-19T00:39:59;21.30;99.90
10175;DHT22;18221;38.704;0.152;2023-06-19T00:42:27;21.30;99.90
10175;DHT22;18221;38.704;0.152;2023-06-19T00:44:55;21.30;99.90
10175;DHT22;18221;38.704;0.152;2023-06-19T00:47:23;21.30;99.90
10175;DHT22;18221;38.704;0.152;2023-06-19T00:49:51;21.30;99.90
10175;DHT22;18221;38.704;0.152;2023-06-19T00:52:19;21.30;99.90
10175;DHT22;18221;38.704;0.152;2023-06-19T00:54:47;21.30;99.90
10175;DHT22;18221;38.704;0.152;2023-06-19T00:57:17;21.30;99.90
10175;DHT22;18221;38.704;0.152;2023-06-19T00:59:45;21.30;99.90
10175;DHT22;18221;38.704;0.152;2023-06-19T01:02:16;21.30;99.90
10175;DHT22;18221;38.704;0.152;2023-06-19T01:04:44;21.30;99.90
10175;DHT22;18221;38.704;0.152;2023-06-19T01:07:15;21.20;99.90
10175;DHT22;18221;38.704;0.152;2023-06-19T01:09:50;21.20;99.90
10175;DHT22;18221;38.704;0.152;2023-06-19T01:12:29;21.20;99.90
10175;DHT22;18221;38.704;0.152;2023-06-19T01:15:02;21.20;99.90
10175;DHT22;18221;38.704;0.152;2023-06-19T01:17:32;21.20;99.90
10175;DHT22;18221;38.704;0.152;2023-06-19T01:20:03;21.20;99.90
10175;DHT22;18221;38.704;0.152;2023-06-19T01:22:38;21.20;99.90
10175;DHT22;18221;38.704;0.152;2023-06-19T01:25:09;21.20;99.90
10175;DHT22;18221;38.704;0.152;2023-06-19T01:27:41;21.20;99.90
10175;DHT22;18221;38.704;0.152;2023-06-19T01:30:11;21.20;99.90
10175;DHT22;18221;38.704;0.152;2023-06-19T01:32:47;21.20;99.90
10175;DHT22;18221;38.704;0.152;2023-06-19T01:35:25;21.20;99.90
10175;DHT22;18221;38.704;0.152;2023-06-19T01:37:57;21.20;99.90
10175;DHT22;18221;38.704;0.152;2023-06-19T01:40:27;21.20;99.90
10175;DHT22;18221;38.704;0.152;2023-06-19T01:42:58;21.20;99.90
10175;DHT22;18221;38.704;0.152;2023-06-19T01:45:28;21.20;99.90
10175;DHT22;18221;38.704;0.152;2023-06-19T01:47:57;21.20;99.90
10175;DHT22;18221;38.704;0.152;2023-06-19T01:50:25;21.10;99.90
10175;DHT22;18221;38.704;0.152;2023-06-19T01:52:53;21.10;99.90
10175;DHT22;18221;38.704;0.152;2023-06-19T01:55:23;21.20;99.90
10175;DHT22;18221;38.704;0.152;2023-06-19T01:57:51;21.20;99.90
10175;DHT22;18221;38.704;0.152;2023-06-19T02:00:19;21.10;99.90
10175;DHT22;18221;38.704;0.152;2023-06-19T02:02:47;21.10;99.90
10175;DHT22;18221;38.704;0.152;2023-06-19T02:05:15;21.10;99.90
10175;DHT22;18221;38.704;0.152;2023-06-19T02:07:46;21.90;99.90
10175;DHT22;18221;38.704;0.152;2023-06-19T02:10:15;21.10;99.90
10175;DHT22;18221;38.704;0.152;2023-06-19T02:12:43;21.10;99.90
10175;DHT22;18221;38.704;0.152;2023-06-19T02:15:11;21.10;99.90
10175;DHT22;18221;38.704;0.152;2023-06-19T02:17:39;21.10;99.90
10175;DHT22;18221;38.704;0.152;2023-06-19T02:20:09;21.10;99.90
10175;DHT22;18221;38.704;0.152;2023-06-19T02:22:38;21.10;99.90
10175;DHT22;18221;38.704;0.152;2023-06-19T02:25:07;21.10;99.90
10175;DHT22;18221;38.704;0.152;2023-06-19T02:27:36;21.10;99.90
10175;DHT22;18221;38.704;0.152;2023-06-19T02:30:05;21.10;99.90
10175;DHT22;18221;38.704;0.152;2023-06-19T02:32:34;21.10;99.90
10175;DHT22;18221;38.704;0.152;2023-06-19T02:35:02;21.10;99.90
10175;DHT22;18221;38.704;0.152;2023-06-19T02:37:30;21.10;99.90
10175;DHT22;18221;38.704;0.152;2023-06-19T02:39:58;21.10;99.90
10175;DHT22;18221;38.704;0.152;2023-06-19T02:42:29;21.10;99.90
10175;DHT22;18221;38.704;0.152;2023-06-19T02:44:58;21.10;99.90
10175;DHT22;18221;38.704;0.152;2023-06-19T02:47:30;21.10;99.90
10175;DHT22;18221;38.704;0.152;2023-06-19T02:49:58;21.10;99.90
10175;DHT22;18221;38.704;0.152;2023-06-19T02:52:27;21.10;99.90
10175;DHT22;18221;38.704;0.152;2023-06-19T02:54:55;21.20;99.90
10175;DHT22;18221;38.704;0.152;2023-06-19T02:57:23;21.10;99.90
10175;DHT22;18221;38.704;0.152;2023-06-19T02:59:51;21.10;99.90
10175;DHT22;18221;38.704;0.152;2023-06-19T03:02:21;21.00;99.90
10175;DHT22;18221;38.704;0.152;2023-06-19T03:04:48;21.00;99.90
10175;DHT22;18221;38.704;0.152;2023-06-19T03:07:16;21.00;99.90
10175;DHT22;18221;38.704;0.152;2023-06-19T03:09:44;21.00;99.90
10175;DHT22;18221;38.704;0.152;2023-06-19T03:12:12;21.00;99.90
10175;DHT22;18221;38.704;0.152;2023-06-19T03:14:40;21.00;99.90
10175;DHT22;18221;38.704;0.152;2023-06-19T03:17:08;21.00;99.90
10175;DHT22;18221;38.704;0.152;2023-06-19T03:19:37;21.00;99.90
10175;DHT22;18221;38.704;0.152;2023-06-19T03:22:05;21.00;99.90
10175;DHT22;18221;38.704;0.152;2023-06-19T03:24:33;21.00;99.90
10175;DHT22;18221;38.704;0.152;2023-06-19T03:27:01;21.00;99.90
10175;DHT22;18221;38.704;0.152;2023-06-19T03:29:29;21.00;99.90
10175;DHT22;18221;38.704;0.152;2023-06-19T03:31:57;21.00;99.90
10175;DHT22;18221;38.704;0.152;2023-06-19T03:34:25;21.00;99.90
10175;DHT22;18221;38.704;0.152;2023-06-19T03:36:54;20.90;99.90
10175;DHT22;18221;38.704;0.152;2023-06-19T03:39:22;20.90;99.90
10175;DHT22;18221;38.704;0.152;2023-06-19T03:41:50;21.00;99.90
10175;DHT22;18221;38.704;0.152;2023-06-19T03:44:18;20.90;99.90
10175;DHT22;18221;38.704;0.152;2023-06-19T03:46:46;20.90;99.90
10175;DHT22;18221;38.704;0.152;2023-06-19T03:49:16;20.90;99.90
10175;DHT22;18221;38.704;0.152;2023-06-19T03:51:44;20.90;99.90
10175;DHT22;18221;38.704;0.152;2023-06-19T03:54:13;21.00;99.90
10175;DHT22;18221;38.704;0.152;2023-06-19T03:56:41;20.90;99.90
10175;DHT22;18221;38.704;0.152;2023-06-19T03:59:09;21.00;99.90
10175;DHT22;18221;38.704;0.152;2023-06-19T04:01:37;21.00;99.90
10175;DHT22;18221;38.704;0.152;2023-06-19T04:04:05;21.00;99.90
10175;DHT22;18221;38.704;0.152;2023-06-19T04:06:32;21.00;99.90
10175;DHT22;18221;38.704;0.152;2023-06-19T04:09:01;21.00;99.90
10175;DHT22;18221;38.704;0.152;2023-06-19T04:11:30;20.90;99.90
10175;DHT22;18221;38.704;0.152;2023-06-19T04:13:58;21.00;99.90
10175;DHT22;18221;38.704;0.152;2023-06-19T04:16:26;20.90;99.90
10175;DHT22;18221;38.704;0.152;2023-06-19T04:18:53;20.90;99.90
10175;DHT22;18221;38.704;0.152;2023-06-19T04:21:21;20.90;99.90
10175;DHT22;18221;38.704;0.152;2023-06-19T04:23:50;20.90;99.90
10175;DHT22;18221;38.704;0.152;2023-06-19T04:26:18;20.90;99.90
10175;DHT22;18221;38.704;0.152;2023-06-19T04:28:48;20.90;99.90
10175;DHT22;18221;38.704;0.152;2023-06-19T04:31:16;20.90;99.90
10175;DHT22;18221;38.704;0.152;2023-06-19T04:33:45;20.90;99.90
10175;DHT22;18221;38.704;0.152;2023-06-19T04:36:13;20.90;99.90
10175;DHT22;18221;38.704;0.152;2023-06-19T04:38:42;20.90;99.90
10175;DHT22;18221;38.704;0.152;2023-06-19T04:41:11;20.90;99.90
10175;DHT22;18221;38.704;0.152;2023-06-19T04:43:39;20.90;99.90
10175;DHT22;18221;38.704;0.152;2023-06-19T04:46:09;20.90;99.90
10175;DHT22;18221;38.704;0.152;2023-06-19T04:48:37;20.90;99.90
10175;DHT22;18221;38.704;0.152;2023-06-19T04:51:06;20.90;99.90
10175;DHT22;18221;38.704;0.152;2023-06-19T04:53:35;20.90;99.90
10175;DHT22;18221;38.704;0.152;2023-06-19T04:56:03;20.90;99.90
10175;DHT22;18221;38.704;0.152;2023-06-19T04:58:31;20.90;99.90
10175;DHT22;18221;38.704;0.152;2023-06-19T05:00:59;20.90;99.90
10175;DHT22;18221;38.704;0.152;2023-06-19T05:03:28;20.90;99.90
10175;DHT22;18221;38.704;0.152;2023-06-19T05:05:56;20.90;99.90
10175;DHT22;18221;38.704;0.152;2023-06-19T05:08:24;20.90;99.90
10175;DHT22;18221;38.704;0.152;2023-06-19T05:10:52;20.90;99.90
10175;DHT22;18221;38.704;0.152;2023-06-19T05:13:20;20.90;99.90
10175;DHT22;18221;38.704;0.152;2023-06-19T05:15:48;20.90;99.90
10175;DHT22;18221;38.704;0.152;2023-06-19T05:18:17;20.90;99.90
10175;DHT22;18221;38.704;0.152;2023-06-19T05:20:46;20.90;99.90
10175;DHT22;18221;38.704;0.152;2023-06-19T05:23:14;21.00;99.90
10175;DHT22;18221;38.704;0.152;2023-06-19T05:25:42;21.00;99.90
10175;DHT22;18221;38.704;0.152;2023-06-19T05:28:11;20.90;99.90
10175;DHT22;18221;38.704;0.152;2023-06-19T05:30:39;21.00;99.90
10175;DHT22;18221;38.704;0.152;2023-06-19T05:33:07;21.00;99.90
10175;DHT22;18221;38.704;0.152;2023-06-19T05:35:35;21.00;99.90
10175;DHT22;18221;38.704;0.152;2023-06-19T05:38:04;21.00;99.90
10175;DHT22;18221;38.704;0.152;2023-06-19T05:40:32;21.00;99.90
10175;DHT22;18221;38.704;0.152;2023-06-19T05:43:00;21.00;99.90
10175;DHT22;18221;38.704;0.152;2023-06-19T05:45:29;21.10;99.90
10175;DHT22;18221;38.704;0.152;2023-06-19T05:47:57;21.10;99.90
10175;DHT22;18221;38.704;0.152;2023-06-19T05:50:24;21.10;99.90
10175;DHT22;18221;38.704;0.152;2023-06-19T05:52:52;21.10;99.90
10175;DHT22;18221;38.704;0.152;2023-06-19T05:55:22;21.10;99.90
10175;DHT22;18221;38.704;0.152;2023-06-19T05:57:50;21.10;99.90
10175;DHT22;18221;38.704;0.152;2023-06-19T06:00:19;21.10;99.90
10175;DHT22;18221;38.704;0.152;2023-06-19T06:02:46;21.10;99.90
10175;DHT22;18221;38.704;0.152;2023-06-19T06:05:15;21.10;99.90
10175;DHT22;18221;38.704;0.152;2023-06-19T06:07:43;21.10;99.90
10175;DHT22;18221;38.704;0.152;2023-06-19T06:10:11;21.20;99.90
10175;DHT22;18221;38.704;0.152;2023-06-19T06:12:41;21.10;99.90
10175;DHT22;18221;38.704;0.152;2023-06-19T06:15:09;21.10;99.90
10175;DHT22;18221;38.704;0.152;2023-06-19T06:17:37;21.20;99.90
10175;DHT22;18221;38.704;0.152;2023-06-19T06:20:09;21.10;99.90
10175;DHT22;18221;38.704;0.152;2023-06-19T06:22:38;21.20;99.90
10175;DHT22;18221;38.704;0.152;2023-06-19T06:25:07;21.20;99.90
10175;DHT22;18221;38.704;0.152;2023-06-19T06:27:37;21.20;99.90
10175;DHT22;18221;38.704;0.152;2023-06-19T06:30:07;21.20;99.90
10175;DHT22;18221;38.704;0.152;2023-06-19T06:32:37;21.20;99.90
10175;DHT22;18221;38.704;0.152;2023-06-19T06:35:06;21.30;99.90
10175;DHT22;18221;38.704;0.152;2023-06-19T06:37:34;21.20;99.90
10175;DHT22;18221;38.704;0.152;2023-06-19T06:40:02;21.30;99.90
10175;DHT22;18221;38.704;0.152;2023-06-19T06:42:34;21.30;99.90
10175;DHT22;18221;38.704;0.152;2023-06-19T06:45:03;21.30;99.90
10175;DHT22;18221;38.704;0.152;2023-06-19T06:47:35;21.40;99.90
10175;DHT22;18221;38.704;0.152;2023-06-19T06:50:03;21.40;99.90
10175;DHT22;18221;38.704;0.152;2023-06-19T06:52:31;21.40;99.90
10175;DHT22;18221;38.704;0.152;2023-06-19T06:54:59;21.50;99.90
10175;DHT22;18221;38.704;0.152;2023-06-19T06:57:27;21.40;99.90
10175;DHT22;18221;38.704;0.152;2023-06-19T06:59:55;21.50;99.90
10175;DHT22;18221;38.704;0.152;2023-06-19T07:02:23;21.50;99.90
10175;DHT22;18221;38.704;0.152;2023-06-19T07:04:52;21.60;99.90
10175;DHT22;18221;38.704;0.152;2023-06-19T07:07:20;21.60;99.90
10175;DHT22;18221;38.704;0.152;2023-06-19T07:09:48;21.60;99.90
10175;DHT22;18221;38.704;0.152;2023-06-19T07:12:17;21.70;99.90
10175;DHT22;18221;38.704;0.152;2023-06-19T07:14:45;21.60;99.90
10175;DHT22;18221;38.704;0.152;2023-06-19T07:17:13;21.60;99.90
10175;DHT22;18221;38.704;0.152;2023-06-19T07:19:41;21.70;99.90
10175;DHT22;18221;38.704;0.152;2023-06-19T07:22:13;21.70;99.90
10175;DHT22;18221;38.704;0.152;2023-06-19T07:24:41;21.70;99.90
10175;DHT22;18221;38.704;0.152;2023-06-19T07:27:09;21.80;99.90
10175;DHT22;18221;38.704;0.152;2023-06-19T07:29:37;21.80;99.90
10175;DHT22;18221;38.704;0.152;2023-06-19T07:32:06;21.80;99.90
10175;DHT22;18221;38.704;0.152;2023-06-19T07:34:34;21.80;99.90
10175;DHT22;18221;38.704;0.152;2023-06-19T07:37:02;21.80;99.90
10175;DHT22;18221;38.704;0.152;2023-06-19T07:39:32;21.90;99.90
10175;DHT22;18221;38.704;0.152;2023-06-19T07:42:00;21.80;99.90
10175;DHT22;18221;38.704;0.152;2023-06-19T07:44:28;21.90;99.90
10175;DHT22;18221;38.704;0.152;2023-06-19T07:46:56;21.90;99.90
10175;DHT22;18221;38.704;0.152;2023-06-19T07:49:23;21.90;99.90
10175;DHT22;18221;38.704;0.152;2023-06-19T07:51:51;21.90;99.90
10175;DHT22;18221;38.704;0.152;2023-06-19T07:54:19;21.90;99.90
10175;DHT22;18221;38.704;0.152;2023-06-19T07:56:48;22.00;99.90
10175;DHT22;18221;38.704;0.152;2023-06-19T07:59:16;21.90;99.90
10175;DHT22;18221;38.704;0.152;2023-06-19T08:01:44;21.90;99.90
10175;DHT22;18221;38.704;0.152;2023-06-19T08:04:12;21.90;99.90
10175;DHT22;18221;38.704;0.152;2023-06-19T08:06:40;22.00;99.90
10175;DHT22;18221;38.704;0.152;2023-06-19T08:09:08;22.00;99.90
10175;DHT22;18221;38.704;0.152;2023-06-19T08:11:36;22.10;99.90
10175;DHT22;18221;38.704;0.152;2023-06-19T08:14:05;22.20;99.90
10175;DHT22;18221;38.704;0.152;2023-06-19T08:16:33;22.40;99.90
10175;DHT22;18221;38.704;0.152;2023-06-19T08:19:01;22.40;99.90
10175;DHT22;18221;38.704;0.152;2023-06-19T08:21:29;22.40;99.90
10175;DHT22;18221;38.704;0.152;2023-06-19T08:23:57;22.40;99.90
10175;DHT22;18221;38.704;0.152;2023-06-19T08:26:25;22.40;99.90
10175;DHT22;18221;38.704;0.152;2023-06-19T08:28:54;22.50;99.90
10175;DHT22;18221;38.704;0.152;2023-06-19T08:31:24;22.40;99.90
10175;DHT22;18221;38.704;0.152;2023-06-19T08:33:53;22.40;99.90
10175;DHT22;18221;38.704;0.152;2023-06-19T08:36:21;22.30;99.90
10175;DHT22;18221;38.704;0.152;2023-06-19T08:38:49;22.30;99.90
10175;DHT22;18221;38.704;0.152;2023-06-19T08:41:18;22.30;99.90
10175;DHT22;18221;38.704;0.152;2023-06-19T08:43:47;22.40;99.90
10175;DHT22;18221;38.704;0.152;2023-06-19T08:46:15;22.60;99.90
10175;DHT22;18221;38.704;0.152;2023-06-19T08:48:46;22.80;99.90
10175;DHT22;18221;38.704;0.152;2023-06-19T08:51:14;23.00;99.90
10175;DHT22;18221;38.704;0.152;2023-06-19T08:53:45;23.10;99.90
10175;DHT22;18221;38.704;0.152;2023-06-19T08:56:16;23.10;99.90
10175;DHT22;18221;38.704;0.152;2023-06-19T08:58:45;23.10;99.90
10175;DHT22;18221;38.704;0.152;2023-06-19T09:01:17;23.20;99.90
10175;DHT22;18221;38.704;0.152;2023-06-19T09:03:47;23.20;99.90
10175;DHT22;18221;38.704;0.152;2023-06-19T09:06:18;23.20;99.90
10175;DHT22;18221;38.704;0.152;2023-06-19T09:08:46;23.10;99.90
10175;DHT22;18221;38.704;0.152;2023-06-19T09:11:25;23.10;99.90
10175;DHT22;18221;38.704;0.152;2023-06-19T09:13:56;23.10;99.90
10175;DHT22;18221;38.704;0.152;2023-06-19T09:16:36;23.20;99.90
10175;DHT22;18221;38.704;0.152;2023-06-19T09:19:07;23.20;99.90
10175;DHT22;18221;38.704;0.152;2023-06-19T09:21:36;23.30;99.90
10175;DHT22;18221;38.704;0.152;2023-06-19T09:24:06;23.40;99.90
10175;DHT22;18221;38.704;0.152;2023-06-19T09:26:35;23.40;99.90
10175;DHT22;18221;38.704;0.152;2023-06-19T09:29:13;23.50;99.90
10175;DHT22;18221;38.704;0.152;2023-06-19T09:31:43;23.50;99.90
10175;DHT22;18221;38.704;0.152;2023-06-19T09:34:13;23.60;99.90
10175;DHT22;18221;38.704;0.152;2023-06-19T09:36:41;23.60;99.90
10175;DHT22;18221;38.704;0.152;2023-06-19T09:39:10;23.70;99.90
10175;DHT22;18221;38.704;0.152;2023-06-19T09:41:40;23.70;99.90
10175;DHT22;18221;38.704;0.152;2023-06-19T09:44:11;23.60;99.90
10175;DHT22;18221;38.704;0.152;2023-06-19T09:46:41;23.70;99.90
10175;DHT22;18221;38.704;0.152;2023-06-19T09:49:16;23.70;99.90
10175;DHT22;18221;38.704;0.152;2023-06-19T09:51:48;23.80;99.90
10175;DHT22;18221;38.704;0.152;2023-06-19T09:54:18;23.80;99.90
10175;DHT22;18221;38.704;0.152;2023-06-19T09:56:48;23.90;99.90
10175;DHT22;18221;38.704;0.152;2023-06-19T09:59:18;24.00;99.90
10175;DHT22;18221;38.704;0.152;2023-06-19T10:01:46;24.10;99.90
10175;DHT22;18221;38.704;0.152;2023-06-19T10:04:17;24.20;99.90
10175;DHT22;18221;38.704;0.152;2023-06-19T10:06:45;24.20;99.90
10175;DHT22;18221;38.704;0.152;2023-06-19T10:09:15;24.20;99.90
10175;DHT22;18221;38.704;0.152;2023-06-19T10:11:48;24.20;99.90
10175;DHT22;18221;38.704;0.152;2023-06-19T10:14:18;24.30;99.90
10175;DHT22;18221;38.704;0.152;2023-06-19T10:16:46;24.30;99.90
10175;DHT22;18221;38.704;0.152;2023-06-19T10:19:17;24.40;99.90
10175;DHT22;18221;38.704;0.152;2023-06-19T10:21:53;24.40;99.90
10175;DHT22;18221;38.704;0.152;2023-06-19T10:24:25;24.50;99.90
10175;DHT22;18221;38.704;0.152;2023-06-19T10:26:58;24.50;99.90
10175;DHT22;18221;38.704;0.152;2023-06-19T10:29:38;24.50;99.90
10175;DHT22;18221;38.704;0.152;2023-06-19T10:32:06;24.50;99.90
10175;DHT22;18221;38.704;0.152;2023-06-19T10:34:36;24.60;99.90
10175;DHT22;18221;38.704;0.152;2023-06-19T10:37:04;24.50;99.90
10175;DHT22;18221;38.704;0.152;2023-06-19T10:39:33;24.50;99.90
10175;DHT22;18221;38.704;0.152;2023-06-19T10:42:04;24.40;99.90
10175;DHT22;18221;38.704;0.152;2023-06-19T10:44:34;24.50;99.90
10175;DHT22;18221;38.704;0.152;2023-06-19T10:47:03;24.40;99.90
10175;DHT22;18221;38.704;0.152;2023-06-19T10:49:33;24.50;99.90
10175;DHT22;18221;38.704;0.152;2023-06-19T10:52:02;24.40;99.90
10175;DHT22;18221;38.704;0.152;2023-06-19T10:54:32;24.30;99.90
10175;DHT22;18221;38.704;0.152;2023-06-19T10:57:04;24.10;99.90
10175;DHT22;18221;38.704;0.152;2023-06-19T10:59:33;23.90;99.90
10175;DHT22;18221;38.704;0.152;2023-06-19T11:02:01;23.80;99.90
10175;DHT22;18221;38.704;0.152;2023-06-19T11:04:31;23.70;99.90
10175;DHT22;18221;38.704;0.152;2023-06-19T11:07:07;23.70;99.90
10175;DHT22;18221;38.704;0.152;2023-06-19T11:09:36;23.90;99.90
10175;DHT22;18221;38.704;0.152;2023-06-19T11:12:04;24.10;99.90
10175;DHT22;18221;38.704;0.152;2023-06-19T11:14:34;24.20;99.90
10175;DHT22;18221;38.704;0.152;2023-06-19T11:17:06;24.30;99.90
10175;DHT22;18221;38.704;0.152;2023-06-19T11:19:33;24.40;99.90
10175;DHT22;18221;38.704;0.152;2023-06-19T11:22:06;24.40;99.90
10175;DHT22;18221;38.704;0.152;2023-06-19T11:24:34;24.50;99.90
10175;DHT22;18221;38.704;0.152;2023-06-19T11:27:02;24.50;99.90
10175;DHT22;18221;38.704;0.152;2023-06-19T11:29:31;24.60;99.90
10175;DHT22;18221;38.704;0.152;2023-06-19T11:32:07;24.60;99.90
10175;DHT22;18221;38.704;0.152;2023-06-19T11:34:36;24.60;99.90
10175;DHT22;18221;38.704;0.152;2023-06-19T11:37:13;24.70;99.90
10175;DHT22;18221;38.704;0.152;2023-06-19T11:39:43;24.80;99.90
10175;DHT22;18221;38.704;0.152;2023-06-19T11:42:11;24.80;99.90
10175;DHT22;18221;38.704;0.152;2023-06-19T11:44:53;24.80;99.90
10175;DHT22;18221;38.704;0.152;2023-06-19T11:47:21;24.80;99.90
10175;DHT22;18221;38.704;0.152;2023-06-19T11:49:50;24.80;99.90
10175;DHT22;18221;38.704;0.152;2023-06-19T11:52:20;24.80;99.90
10175;DHT22;18221;38.704;0.152;2023-06-19T11:54:48;24.80;99.90
10175;DHT22;18221;38.704;0.152;2023-06-19T11:57:16;24.80;99.90
10175;DHT22;18221;38.704;0.152;2023-06-19T11:59:44;24.90;99.90
10175;DHT22;18221;38.704;0.152;2023-06-19T12:02:13;24.80;99.90
10175;DHT22;18221;38.704;0.152;2023-06-19T12:04:41;24.80;99.90
10175;DHT22;18221;38.704;0.152;2023-06-19T12:07:09;24.90;99.90
10175;DHT22;18221;38.704;0.152;2023-06-19T12:09:39;24.90;99.90
10175;DHT22;18221;38.704;0.152;2023-06-19T12:12:08;25.00;99.90
10175;DHT22;18221;38.704;0.152;2023-06-19T12:14:37;25.00;99.90
10175;DHT22;18221;38.704;0.152;2023-06-19T12:17:05;25.00;99.90
10175;DHT22;18221;38.704;0.152;2023-06-19T12:19:33;25.00;99.90
10175;DHT22;18221;38.704;0.152;2023-06-19T12:22:01;25.00;99.90
10175;DHT22;18221;38.704;0.152;2023-06-19T12:24:31;24.90;99.90
10175;DHT22;18221;38.704;0.152;2023-06-19T12:27:00;25.00;99.90
10175;DHT22;18221;38.704;0.152;2023-06-19T12:29:28;25.10;99.90
10175;DHT22;18221;38.704;0.152;2023-06-19T12:32:00;25.00;99.90
10175;DHT22;18221;38.704;0.152;2023-06-19T12:34:29;25.00;99.90
10175;DHT22;18221;38.704;0.152;2023-06-19T12:36:57;25.10;99.90
10175;DHT22;18221;38.704;0.152;2023-06-19T12:39:25;25.10;99.90
10175;DHT22;18221;38.704;0.152;2023-06-19T12:41:53;25.10;99.90
10175;DHT22;18221;38.704;0.152;2023-06-19T12:44:23;25.10;99.90
10175;DHT22;18221;38.704;0.152;2023-06-19T12:46:51;25.10;99.90
10175;DHT22;18221;38.704;0.152;2023-06-19T12:49:20;24.90;99.90
10175;DHT22;18221;38.704;0.152;2023-06-19T12:51:47;24.90;99.90
10175;DHT22;18221;38.704;0.152;2023-06-19T12:54:17;25.00;99.90
10175;DHT22;18221;38.704;0.152;2023-06-19T12:56:46;25.10;99.90
10175;DHT22;18221;38.704;0.152;2023-06-19T13:26:33;25.50;99.90
10175;DHT22;18221;38.704;0.152;2023-06-19T13:29:01;25.50;99.90
10175;DHT22;18221;38.704;0.152;2023-06-19T13:31:29;25.50;99.90
10175;DHT22;18221;38.704;0.152;2023-06-19T13:33:57;25.60;99.90
10175;DHT22;18221;38.704;0.152;2023-06-19T13:36:25;25.60;99.90
10175;DHT22;18221;38.704;0.152;2023-06-19T13:38:53;25.70;99.90
10175;DHT22;18221;38.704;0.152;2023-06-19T13:41:23;25.30;99.90
10175;DHT22;18221;38.704;0.152;2023-06-19T13:43:54;25.80;99.90
10175;DHT22;18221;38.704;0.152;2023-06-19T13:46:22;25.70;99.90
10175;DHT22;18221;38.704;0.152;2023-06-19T13:48:50;25.80;99.90
10175;DHT22;18221;38.704;0.152;2023-06-19T13:51:18;25.80;99.90
10175;DHT22;18221;38.704;0.152;2023-06-19T13:53:46;25.80;99.90
10175;DHT22;18221;38.704;0.152;2023-06-19T13:56:15;25.80;99.90
10175;DHT22;18221;38.704;0.152;2023-06-19T13:58:43;25.90;99.90
10175;DHT22;18221;38.704;0.152;2023-06-19T14:01:12;26.00;99.90
10175;DHT22;18221;38.704;0.152;2023-06-19T14:03:40;25.90;99.90
10175;DHT22;18221;38.704;0.152;2023-06-19T14:06:08;25.90;99.90
10175;DHT22;18221;38.704;0.152;2023-06-19T14:08:36;25.80;99.90
10175;DHT22;18221;38.704;0.152;2023-06-19T14:11:05;25.90;99.90
10175;DHT22;18221;38.704;0.152;2023-06-19T14:13:33;25.70;99.90
10175;DHT22;18221;38.704;0.152;2023-06-19T14:16:01;25.70;99.90
10175;DHT22;18221;38.704;0.152;2023-06-19T14:18:31;25.80;99.90
10175;DHT22;18221;38.704;0.152;2023-06-19T14:20:59;25.90;99.90
10175;DHT22;18221;38.704;0.152;2023-06-19T14:23:27;25.80;99.90
10175;DHT22;18221;38.704;0.152;2023-06-19T14:25:55;25.90;99.90
10175;DHT22;18221;38.704;0.152;2023-06-19T14:28:23;25.90;99.90
10175;DHT22;18221;38.704;0.152;2023-06-19T14:30:52;25.80;99.90
10175;DHT22;18221;38.704;0.152;2023-06-19T14:33:20;25.80;99.90
10175;DHT22;18221;38.704;0.152;2023-06-19T14:35:49;25.70;99.90
10175;DHT22;18221;38.704;0.152;2023-06-19T14:38:17;25.70;99.90
10175;DHT22;18221;38.704;0.152;2023-06-19T14:40:45;25.70;99.90
10175;DHT22;18221;38.704;0.152;2023-06-19T14:43:13;25.60;99.90
10175;DHT22;18221;38.704;0.152;2023-06-19T14:45:41;25.40;99.90
10175;DHT22;18221;38.704;0.152;2023-06-19T14:48:09;25.30;99.90
10175;DHT22;18221;38.704;0.152;2023-06-19T14:50:37;25.30;99.90
10175;DHT22;18221;38.704;0.152;2023-06-19T14:53:07;25.30;99.90
10175;DHT22;18221;38.704;0.152;2023-06-19T14:55:34;25.20;99.90
10175;DHT22;18221;38.704;0.152;2023-06-19T14:58:04;25.20;99.90
10175;DHT22;18221;38.704;0.152;2023-06-19T15:00:33;25.20;99.90
10175;DHT22;18221;38.704;0.152;2023-06-19T15:03:04;25.10;99.90
10175;DHT22;18221;38.704;0.152;2023-06-19T15:05:32;25.20;99.90
10175;DHT22;18221;38.704;0.152;2023-06-19T15:08:00;25.40;99.90
10175;DHT22;18221;38.704;0.152;2023-06-19T15:10:30;25.50;99.90
10175;DHT22;18221;38.704;0.152;2023-06-19T15:12:58;25.60;99.90
10175;DHT22;18221;38.704;0.152;2023-06-19T15:15:26;25.70;99.90
10175;DHT22;18221;38.704;0.152;2023-06-19T15:17:54;25.80;99.90
10175;DHT22;18221;38.704;0.152;2023-06-19T15:20:23;25.70;99.90
10175;DHT22;18221;38.704;0.152;2023-06-19T15:22:51;25.70;99.90
10175;DHT22;18221;38.704;0.152;2023-06-19T15:25:19;25.70;99.90
10175;DHT22;18221;38.704;0.152;2023-06-19T15:27:48;25.60;99.90
10175;DHT22;18221;38.704;0.152;2023-06-19T15:30:16;25.50;99.90
10175;DHT22;18221;38.704;0.152;2023-06-19T15:32:44;25.50;99.90
10175;DHT22;18221;38.704;0.152;2023-06-19T15:35:12;25.60;99.90
10175;DHT22;18221;38.704;0.152;2023-06-19T15:37:40;25.50;99.90
10175;DHT22;18221;38.704;0.152;2023-06-19T15:40:09;25.50;99.90
10175;DHT22;18221;38.704;0.152;2023-06-19T15:42:38;25.50;99.90
10175;DHT22;18221;38.704;0.152;2023-06-19T15:45:08;25.40;99.90
10175;DHT22;18221;38.704;0.152;2023-06-19T15:47:39;25.30;99.90
10175;DHT22;18221;38.704;0.152;2023-06-19T15:50:07;25.30;99.90
10175;DHT22;18221;38.704;0.152;2023-06-19T15:52:36;25.20;99.90
10175;DHT22;18221;38.704;0.152;2023-06-19T15:55:05;25.10;99.90
10175;DHT22;18221;38.704;0.152;2023-06-19T15:57:34;25.10;99.90
10175;DHT22;18221;38.704;0.152;2023-06-19T16:00:02;25.10;99.90
10175;DHT22;18221;38.704;0.152;2023-06-19T16:02:32;25.10;99.90
10175;DHT22;18221;38.704;0.152;2023-06-19T16:05:00;25.00;99.90
10175;DHT22;18221;38.704;0.152;2023-06-19T16:07:28;25.10;99.90